createdAt,value
2019-04-04T00:00:36.924Z,99427.37
2019-04-04T00:03:03.826Z,99420.25
2019-04-04T00:05:30.570Z,99415.66
2019-04-04T00:07:58.130Z,99413.79
2019-04-04T00:10:26.350Z,99419.88
2019-04-04T00:12:52.963Z,99418.48
2019-04-04T00:15:19.788Z,99409.19
2019-04-04T00:17:46.880Z,99412.88
2019-04-04T00:20:14.033Z,99413.41
2019-04-04T00:22:40.807Z,99417.27
2019-04-04T00:25:09.601Z,99415.95
2019-04-04T00:27:36.146Z,99412.77
2019-04-04T00:30:03.184Z,99404.31
2019-04-04T00:32:30.349Z,99406.86
2019-04-04T00:34:57.865Z,99404.02
2019-04-04T00:37:25.922Z,99394.72
2019-04-04T00:39:52.842Z,99397.05
2019-04-04T00:42:19.883Z,99390.77
2019-04-04T00:44:46.674Z,99383.16
2019-04-04T00:47:13.648Z,99380.41
2019-04-04T00:49:40.737Z,99382.45
2019-04-04T00:52:09.938Z,99383.84
2019-04-04T00:54:36.576Z,99380.41
2019-04-04T00:57:03.297Z,99377.00
2019-04-04T00:59:29.942Z,99378.31
2019-04-04T01:01:57.085Z,99377.32
2019-04-04T01:04:25.285Z,99374.80
2019-04-04T01:06:51.961Z,99374.73
2019-04-04T01:09:19.061Z,99380.56
2019-04-04T01:11:45.863Z,99371.64
2019-04-04T01:14:12.614Z,99370.13
2019-04-04T01:16:39.943Z,99375.23
2019-04-04T01:19:09.609Z,99372.86
2019-04-04T01:21:35.539Z,99372.50
2019-04-04T01:24:02.521Z,99373.48
2019-04-04T01:26:29.233Z,99365.81
2019-04-04T01:28:56.195Z,99369.66
2019-04-04T01:31:23.203Z,99366.23
2019-04-04T01:34:09.500Z,99367.95
2019-04-04T01:36:36.446Z,99368.07
2019-04-04T01:39:44.426Z,99364.02
2019-04-04T01:42:11.959Z,99365.39
2019-04-04T01:44:40.137Z,99374.20
2019-04-04T01:47:08.066Z,99372.38
2019-04-04T01:49:35.051Z,99372.44
2019-04-04T01:52:01.768Z,99374.89
2019-04-04T01:54:29.951Z,99370.16
2019-04-04T01:56:57.281Z,99365.12
2019-04-04T01:59:24.030Z,99365.81
2019-04-04T02:01:51.002Z,99373.41
2019-04-04T02:07:27.825Z,99384.80
2019-04-04T02:09:55.514Z,99400.20
2019-04-04T02:12:22.322Z,99403.53
2019-04-04T02:14:49.098Z,99407.86
2019-04-04T02:17:15.812Z,99403.72
2019-04-04T02:19:43.233Z,99387.83
2019-04-04T02:22:10.009Z,99383.38
2019-04-04T02:24:36.827Z,99388.97
2019-04-04T02:27:04.914Z,99386.63
2019-04-04T02:29:32.254Z,99376.78
2019-04-04T02:34:47.951Z,99371.09
2019-04-04T02:37:14.659Z,99367.46
2019-04-04T02:39:41.424Z,99367.80
2019-04-04T02:42:08.228Z,99357.91
2019-04-04T02:44:35.195Z,99362.86
2019-04-04T02:47:01.827Z,99364.70
2019-04-04T02:49:29.580Z,99360.67
2019-04-04T02:51:57.216Z,99351.42
2019-04-04T02:54:25.709Z,99359.25
2019-04-04T02:56:53.136Z,99365.67
2019-04-04T02:59:21.615Z,99366.11
2019-04-04T03:01:48.915Z,99358.88
2019-04-04T03:04:15.698Z,99360.66
2019-04-04T03:06:42.414Z,99357.75
2019-04-04T03:09:10.387Z,99363.42
2019-04-04T03:11:37.853Z,99367.62
2019-04-04T03:14:17.402Z,99365.50
2019-04-04T03:16:44.210Z,99360.20
2019-04-04T03:19:11.352Z,99360.92
2019-04-04T03:21:39.747Z,99365.05
2019-04-04T03:24:07.345Z,99360.36
2019-04-04T03:26:35.034Z,99357.08
2019-04-04T03:29:04.437Z,99360.02
2019-04-04T03:31:36.462Z,99364.59
2019-04-04T03:34:08.365Z,99369.97
2019-04-04T03:36:30.737Z,99359.24
2019-04-04T03:38:56.988Z,99359.30
2019-04-04T03:41:23.706Z,99353.49
2019-04-04T03:43:50.596Z,99355.05
2019-04-04T03:46:17.285Z,99358.47
2019-04-04T03:48:44.007Z,99353.55
2019-04-04T03:51:11.093Z,99353.45
2019-04-04T03:56:20.271Z,99353.62
2019-04-04T03:58:46.999Z,99357.33
2019-04-04T04:01:14.031Z,99357.58
2019-04-04T04:03:41.164Z,99351.56
2019-04-04T04:06:09.017Z,99352.19
2019-04-04T04:08:36.413Z,99354.76
2019-04-04T04:11:05.785Z,99358.03
2019-04-04T04:13:32.637Z,99354.91
2019-04-04T04:16:12.780Z,99362.11
2019-04-04T04:18:40.231Z,99360.40
2019-04-04T04:21:10.849Z,99353.95
2019-04-04T04:23:37.700Z,99355.66
2019-04-04T04:26:08.198Z,99356.97
2019-04-04T04:28:33.754Z,99357.16
2019-04-04T04:31:01.246Z,99357.55
2019-04-04T04:34:09.006Z,99355.61
2019-04-04T04:36:35.905Z,99347.30
2019-04-04T04:39:02.986Z,99347.13
2019-04-04T04:41:29.720Z,99349.12
2019-04-04T04:44:05.628Z,99340.28
2019-04-04T04:46:33.003Z,99338.97
2019-04-04T04:49:00.654Z,99337.30
2019-04-04T04:51:29.020Z,99333.30
2019-04-04T04:53:56.308Z,99342.77
2019-04-04T04:56:23.023Z,99339.84
2019-04-04T04:58:50.200Z,99339.70
2019-04-04T05:01:18.356Z,99337.36
2019-04-04T05:03:45.899Z,99338.11
2019-04-04T05:06:13.267Z,99339.70
2019-04-04T05:08:41.057Z,99341.45
2019-04-04T05:11:09.347Z,99342.81
2019-04-04T05:13:36.259Z,99344.56
2019-04-04T05:16:05.223Z,99345.92
2019-04-04T05:18:44.175Z,99346.88
2019-04-04T05:21:24.419Z,99349.34
2019-04-04T05:23:41.930Z,99345.09
2019-04-04T05:26:28.804Z,99347.06
2019-04-04T05:28:57.161Z,99345.11
2019-04-04T05:31:25.164Z,99347.69
2019-04-04T05:33:52.329Z,99350.37
2019-04-04T05:36:19.051Z,99351.48
2019-04-04T05:38:47.265Z,99356.67
2019-04-04T05:41:34.078Z,99358.03
2019-04-04T05:44:01.372Z,99354.70
2019-04-04T05:46:28.695Z,99348.84
2019-04-04T05:48:55.450Z,99349.61
2019-04-04T05:51:22.425Z,99342.22
2019-04-04T05:53:49.184Z,99341.11
2019-04-04T05:56:15.954Z,99344.78
2019-04-04T05:58:42.652Z,99344.98
2019-04-04T06:03:58.096Z,99345.11
2019-04-04T06:06:24.813Z,99341.59
2019-04-04T06:08:51.544Z,99341.05
2019-04-04T06:11:20.742Z,99341.12
2019-04-04T06:13:47.488Z,99348.52
2019-04-04T06:16:14.210Z,99346.97
2019-04-04T06:18:42.954Z,99352.64
2019-04-04T06:21:09.907Z,99345.50
2019-04-04T06:23:36.530Z,99348.66
2019-04-04T06:26:06.344Z,99358.55
2019-04-04T06:28:32.219Z,99358.98
2019-04-04T06:31:00.791Z,99351.25
2019-04-04T06:33:27.852Z,99348.89
2019-04-04T06:35:54.474Z,99352.77
2019-04-04T06:38:23.482Z,99345.94
2019-04-04T06:40:49.966Z,99349.77
2019-04-04T06:43:16.572Z,99347.86
2019-04-04T06:45:46.339Z,99342.06
2019-04-04T06:48:12.199Z,99348.81
2019-04-04T06:50:42.768Z,99344.94
2019-04-04T06:53:07.667Z,99349.35
2019-04-04T06:55:39.735Z,99351.48
2019-04-04T06:58:03.067Z,99354.37
2019-04-04T07:00:29.781Z,99349.24
2019-04-04T07:02:56.549Z,99352.01
2019-04-04T07:05:23.270Z,99345.59
2019-04-04T07:07:49.968Z,99352.38
2019-04-04T07:10:16.673Z,99360.36
2019-04-04T07:12:43.667Z,99350.53
2019-04-04T07:15:12.426Z,99357.89
2019-04-04T07:17:40.278Z,99361.66
2019-04-04T07:20:48.994Z,99355.73
2019-04-04T07:23:16.158Z,99344.72
2019-04-04T07:25:43.218Z,99347.56
2019-04-04T07:28:09.927Z,99344.93
2019-04-04T07:30:36.583Z,99336.96
2019-04-04T07:33:03.290Z,99338.69
2019-04-04T07:35:30.055Z,99343.48
2019-04-04T07:40:37.437Z,99343.80
2019-04-04T07:43:08.492Z,99330.20
2019-04-04T07:45:34.102Z,99329.05
2019-04-04T07:48:01.237Z,99337.58
2019-04-04T07:50:27.943Z,99333.14
2019-04-04T07:52:55.003Z,99331.20
2019-04-04T07:55:21.678Z,99322.52
2019-04-04T07:57:50.839Z,99329.69
2019-04-04T08:00:17.211Z,99328.09
2019-04-04T08:02:44.161Z,99331.77
2019-04-04T08:05:13.145Z,99335.13
2019-04-04T08:07:39.548Z,99332.27
2019-04-04T08:10:19.610Z,99336.69
2019-04-04T08:12:35.481Z,99335.00
2019-04-04T08:15:02.191Z,99331.18
2019-04-04T08:17:28.981Z,99333.86
2019-04-04T08:19:59.836Z,99337.13
2019-04-04T08:22:24.323Z,99333.52
2019-04-04T08:24:51.319Z,99336.67
2019-04-04T08:27:17.943Z,99339.75
2019-04-04T08:29:44.953Z,99333.08
2019-04-04T08:32:11.717Z,99334.23
2019-04-04T08:34:38.316Z,99330.52
2019-04-04T08:37:05.117Z,99333.98
2019-04-04T08:39:31.794Z,99331.00
2019-04-04T08:41:58.433Z,99330.91
2019-04-04T08:44:25.328Z,99340.14
2019-04-04T08:46:52.116Z,99346.34
2019-04-04T08:49:18.912Z,99342.16
2019-04-04T08:51:46.070Z,99349.00
2019-04-04T08:54:13.024Z,99347.63
2019-04-04T08:56:40.001Z,99345.34
2019-04-04T08:59:07.410Z,99345.41
2019-04-04T09:01:34.055Z,99338.07
2019-04-04T09:04:00.660Z,99334.57
2019-04-04T09:06:27.380Z,99332.27
2019-04-04T09:08:54.411Z,99321.88
2019-04-04T09:11:21.120Z,99329.81
2019-04-04T09:13:47.719Z,99335.17
2019-04-04T09:16:14.474Z,99327.04
2019-04-04T09:18:41.176Z,99322.82
2019-04-04T09:21:07.774Z,99326.08
2019-04-04T09:23:34.528Z,99330.81
2019-04-04T09:26:05.788Z,99327.23
2019-04-04T09:28:29.844Z,99322.08
2019-04-04T09:30:56.594Z,99311.97
2019-04-04T09:33:23.402Z,99318.89
2019-04-04T09:35:50.107Z,99329.81
2019-04-04T09:38:17.000Z,99323.39
2019-04-04T09:40:44.047Z,99317.44
2019-04-04T09:43:10.653Z,99320.79
2019-04-04T09:45:37.418Z,99323.42
2019-04-04T09:48:04.478Z,99323.76
2019-04-04T09:50:31.369Z,99317.88
2019-04-04T09:52:58.430Z,99315.13
2019-04-04T09:55:25.316Z,99310.84
2019-04-04T09:57:52.110Z,99306.94
2019-04-04T10:02:54.034Z,99300.70
2019-04-04T10:05:20.738Z,99300.95
2019-04-04T10:07:47.733Z,99301.92
2019-04-04T10:10:55.533Z,99306.16
2019-04-04T10:13:22.365Z,99308.52
2019-04-04T10:15:49.604Z,99302.16
2019-04-04T10:18:16.279Z,99306.89
2019-04-04T10:20:42.904Z,99298.06
2019-04-04T10:23:12.935Z,99290.36
2019-04-04T10:25:38.445Z,99298.45
2019-04-04T10:28:05.210Z,99305.75
2019-04-04T10:30:31.917Z,99301.95
2019-04-04T10:32:58.674Z,99303.13
2019-04-04T10:35:25.386Z,99299.14
2019-04-04T10:37:52.118Z,99295.51
2019-04-04T10:40:19.826Z,99296.30
2019-04-04T10:42:46.585Z,99287.94
2019-04-04T10:45:54.387Z,99287.58
2019-04-04T10:48:21.104Z,99274.61
2019-04-04T10:50:47.941Z,99278.53
2019-04-04T10:53:14.708Z,99278.48
2019-04-04T10:55:41.439Z,99281.42
2019-04-04T10:58:08.061Z,99282.61
2019-04-04T11:00:35.157Z,99284.13
2019-04-04T11:03:01.866Z,99277.45
2019-04-04T11:05:28.595Z,99290.42
2019-04-04T11:07:56.912Z,99287.70
2019-04-04T11:10:24.774Z,99280.09
2019-04-04T11:12:52.393Z,99293.03
2019-04-04T11:15:20.597Z,99287.88
2019-04-04T11:17:47.206Z,99288.36
2019-04-04T11:20:13.964Z,99291.07
2019-04-04T11:22:40.632Z,99286.02
2019-04-04T11:25:07.361Z,99299.91
2019-04-04T11:27:34.202Z,99278.78
2019-04-04T11:30:13.286Z,99285.70
2019-04-04T11:32:40.031Z,99291.47
2019-04-04T11:35:06.749Z,99285.90
2019-04-04T11:37:33.493Z,99285.13
2019-04-04T11:40:00.907Z,99272.30
2019-04-04T11:42:27.514Z,99276.56
2019-04-04T11:44:54.303Z,99275.00
2019-04-04T11:47:21.431Z,99274.00
2019-04-04T11:49:48.575Z,99274.97
2019-04-04T11:52:16.050Z,99272.61
2019-04-04T11:55:02.797Z,99268.13
2019-04-04T11:57:29.787Z,99264.30
2019-04-04T11:59:56.612Z,99265.69
2019-04-04T12:05:12.438Z,99262.03
2019-04-04T12:07:39.250Z,99252.48
2019-04-04T12:10:47.057Z,99252.44
2019-04-04T12:13:13.677Z,99244.70
2019-04-04T12:15:40.409Z,99248.75
2019-04-04T12:18:07.502Z,99245.80
2019-04-04T12:20:34.556Z,99245.70
2019-04-04T12:23:01.376Z,99239.64
2019-04-04T12:25:28.365Z,99237.55
2019-04-04T12:27:55.432Z,99245.77
2019-04-04T12:30:22.476Z,99247.72
2019-04-04T12:32:49.846Z,99244.48
2019-04-04T12:35:16.582Z,99244.04
2019-04-04T12:37:43.519Z,99250.17
2019-04-04T12:40:20.547Z,99248.24
2019-04-04T12:42:39.313Z,99238.34
2019-04-04T12:45:07.348Z,99237.34
2019-04-04T12:47:34.348Z,99235.55
2019-04-04T12:50:01.057Z,99230.16
2019-04-04T12:52:27.685Z,99230.32
2019-04-04T12:54:54.482Z,99223.87
2019-04-04T12:57:21.796Z,99229.41
2019-04-04T12:59:49.146Z,99233.57
2019-04-04T13:02:15.905Z,99222.83
2019-04-04T13:04:42.889Z,99224.13
2019-04-04T13:07:09.846Z,99221.30
2019-04-04T13:09:36.876Z,99225.88
2019-04-04T13:12:04.213Z,99222.92
2019-04-04T13:14:31.063Z,99208.03
2019-04-04T13:16:58.682Z,99220.73
2019-04-04T13:19:25.801Z,99215.13
2019-04-04T13:21:52.512Z,99212.36
2019-04-04T13:24:19.666Z,99207.27
2019-04-04T13:26:46.443Z,99206.68
2019-04-04T13:29:13.164Z,99201.42
2019-04-04T13:31:40.236Z,99197.84
2019-04-04T13:34:20.142Z,99192.63
2019-04-04T13:36:46.914Z,99205.92
2019-04-04T13:39:16.558Z,99206.30
2019-04-04T13:41:43.184Z,99200.51
2019-04-04T13:44:10.058Z,99201.98
2019-04-04T13:46:36.779Z,99198.02
2019-04-04T13:49:45.073Z,99201.41
2019-04-04T13:52:11.869Z,99206.75
2019-04-04T13:55:19.980Z,99202.16
2019-04-04T13:57:47.617Z,99210.18
2019-04-04T14:03:10.512Z,99203.10
2019-04-04T14:05:37.417Z,99205.22
2019-04-04T14:08:04.212Z,99203.50
2019-04-04T14:10:31.276Z,99196.86
2019-04-04T14:12:58.006Z,99195.74
2019-04-04T14:15:25.246Z,99192.56
2019-04-04T14:17:52.545Z,99195.59
2019-04-04T14:20:19.478Z,99189.75
2019-04-04T14:22:47.707Z,99193.50
2019-04-04T14:25:15.480Z,99195.03
2019-04-04T14:27:42.210Z,99201.27
2019-04-04T14:30:50.034Z,99200.11
2019-04-04T14:33:16.937Z,99207.61
2019-04-04T14:37:29.413Z,99197.55
2019-04-04T14:39:56.042Z,99191.45
2019-04-04T14:42:22.792Z,99195.59
2019-04-04T14:44:49.797Z,99192.78
2019-04-04T14:47:16.918Z,99191.06
2019-04-04T14:49:45.859Z,99191.84
2019-04-04T14:52:12.266Z,99193.03
2019-04-04T14:54:39.536Z,99188.23
2019-04-04T14:57:07.684Z,99188.93
2019-04-04T14:59:34.348Z,99184.81
2019-04-04T15:02:01.174Z,99186.74
2019-04-04T15:04:28.222Z,99188.75
2019-04-04T15:06:55.101Z,99180.38
2019-04-04T15:09:21.722Z,99191.63
2019-04-04T15:11:48.690Z,99185.92
2019-04-04T15:14:15.474Z,99187.73
2019-04-04T15:16:42.092Z,99190.00
2019-04-04T15:19:08.701Z,99184.64
2019-04-04T15:21:35.745Z,99178.24
2019-04-04T15:24:02.752Z,99177.75
2019-04-04T15:26:29.467Z,99182.09
2019-04-04T15:28:56.438Z,99177.20
2019-04-04T15:31:23.068Z,99178.13
2019-04-04T15:33:50.574Z,99173.24
2019-04-04T15:36:18.414Z,99178.84
2019-04-04T15:38:45.096Z,99179.52
2019-04-04T15:41:12.104Z,99178.75
2019-04-04T15:43:38.886Z,99178.20
2019-04-04T15:46:05.621Z,99183.77
2019-04-04T15:48:32.236Z,99186.84
2019-04-04T15:50:59.111Z,99183.38
2019-04-04T15:53:25.826Z,99181.19
2019-04-04T15:55:52.975Z,99183.39
2019-04-04T15:58:20.395Z,99185.03
2019-04-04T16:00:47.119Z,99183.24
2019-04-04T16:03:14.216Z,99186.34
2019-04-04T16:05:41.209Z,99184.09
2019-04-04T16:08:07.921Z,99184.77
2019-04-04T16:10:34.848Z,99186.48
2019-04-04T16:13:01.685Z,99188.31
2019-04-04T16:15:28.690Z,99184.44
2019-04-04T16:17:55.420Z,99191.84
2019-04-04T16:20:22.524Z,99182.56
2019-04-04T16:22:49.504Z,99184.63
2019-04-04T16:25:16.226Z,99185.11
2019-04-04T16:27:43.661Z,99185.59
2019-04-04T16:30:51.414Z,99177.13
2019-04-04T16:33:18.199Z,99187.11
2019-04-04T16:35:44.811Z,99188.98
2019-04-04T16:38:11.476Z,99187.55
2019-04-04T16:40:51.386Z,99183.83
2019-04-04T16:43:18.284Z,99191.84
2019-04-04T16:45:44.901Z,99193.91
2019-04-04T16:48:13.850Z,99201.19
2019-04-04T16:50:40.676Z,99202.39
2019-04-04T16:53:07.408Z,99200.50
2019-04-04T16:55:34.896Z,99205.42
2019-04-04T16:58:01.616Z,99203.48
2019-04-04T17:00:28.825Z,99211.53
2019-04-04T17:02:55.671Z,99220.98
2019-04-04T17:05:22.685Z,99216.84
2019-04-04T17:07:49.307Z,99219.89
2019-04-04T17:10:16.254Z,99218.70
2019-04-04T17:13:02.599Z,99224.17
2019-04-04T17:15:29.453Z,99228.30
2019-04-04T17:17:56.536Z,99232.91
2019-04-04T17:20:23.249Z,99230.73
2019-04-04T17:22:50.096Z,99229.64
2019-04-04T17:25:16.813Z,99240.54
2019-04-04T17:27:43.653Z,99244.13
2019-04-04T17:30:51.909Z,99245.16
2019-04-04T17:33:19.006Z,99250.19
2019-04-04T17:35:45.630Z,99256.98
2019-04-04T17:38:13.204Z,99255.59
2019-04-04T17:40:40.130Z,99263.82
2019-04-04T17:43:07.029Z,99268.92
2019-04-04T17:45:33.945Z,99266.30
2019-04-04T17:48:00.762Z,99276.94
2019-04-04T17:50:27.616Z,99279.05
2019-04-04T17:52:55.136Z,99281.16
2019-04-04T17:55:24.155Z,99277.45
2019-04-04T17:57:54.442Z,99277.72
2019-04-04T18:02:57.543Z,99288.24
2019-04-04T18:05:24.553Z,99290.30
2019-04-04T18:07:51.271Z,99290.37
2019-04-04T18:10:18.151Z,99293.02
2019-04-04T18:12:45.100Z,99305.08
2019-04-04T18:15:33.361Z,99301.02
2019-04-04T18:18:00.260Z,99304.12
2019-04-04T18:20:26.938Z,99303.58
2019-04-04T18:22:54.195Z,99310.04
2019-04-04T18:25:20.900Z,99316.02
2019-04-04T18:27:47.533Z,99318.91
2019-04-04T18:30:14.454Z,99321.16
2019-04-04T18:32:41.624Z,99322.97
2019-04-04T18:35:49.886Z,99325.72
2019-04-04T18:38:17.305Z,99327.14
2019-04-04T18:40:44.018Z,99333.00
2019-04-04T18:43:11.512Z,99336.94
2019-04-04T18:45:38.336Z,99340.82
2019-04-04T18:48:05.166Z,99344.02
2019-04-04T18:50:32.116Z,99348.38
2019-04-04T18:52:58.839Z,99344.84
2019-04-04T18:55:25.693Z,99351.73
2019-04-04T18:57:52.842Z,99360.21
2019-04-04T19:00:19.670Z,99362.70
2019-04-04T19:02:46.735Z,99358.42
2019-04-04T19:05:13.814Z,99358.11
2019-04-04T19:07:40.830Z,99359.32
2019-04-04T19:10:48.738Z,99366.84
2019-04-04T19:13:15.453Z,99359.74
2019-04-04T19:15:42.192Z,99358.25
2019-04-04T19:18:08.953Z,99369.73
2019-04-04T19:20:35.598Z,99366.55
2019-04-04T19:23:02.322Z,99363.93
2019-04-04T19:25:29.384Z,99369.25
2019-04-04T19:27:56.927Z,99371.23
2019-04-04T19:30:24.124Z,99371.19
2019-04-04T19:32:50.898Z,99371.45
2019-04-04T19:35:17.977Z,99370.75
2019-04-04T19:37:44.884Z,99373.36
2019-04-04T19:40:53.238Z,99369.50
2019-04-04T19:43:20.789Z,99368.94
2019-04-04T19:45:47.601Z,99382.68
2019-04-04T19:48:15.426Z,99386.76
2019-04-04T19:50:42.151Z,99384.47
2019-04-04T19:53:09.055Z,99387.74
2019-04-04T19:55:38.897Z,99391.52
2019-04-04T19:58:05.802Z,99393.20
2019-04-04T20:00:33.105Z,99388.97
2019-04-04T20:03:00.125Z,99395.48
2019-04-04T20:05:27.297Z,99388.68
2019-04-04T20:07:54.576Z,99390.95
2019-04-04T20:10:22.022Z,99392.53
2019-04-04T20:12:48.939Z,99395.09
2019-04-04T20:15:15.758Z,99403.88
2019-04-04T20:17:42.430Z,99405.97
2019-04-04T20:20:50.251Z,99400.89
2019-04-04T20:23:17.801Z,99413.82
2019-04-04T20:25:44.671Z,99409.85
2019-04-04T20:28:12.588Z,99411.82
2019-04-04T20:30:39.565Z,99415.88
2019-04-04T20:33:07.019Z,99420.17
2019-04-04T20:35:34.559Z,99420.23
2019-04-04T20:38:02.531Z,99419.50
2019-04-04T20:40:30.016Z,99423.47
2019-04-04T20:42:57.850Z,99429.23
2019-04-04T20:45:24.705Z,99430.47
2019-04-04T20:47:51.738Z,99433.97
2019-04-04T20:50:19.131Z,99443.78
2019-04-04T20:52:46.160Z,99443.31
2019-04-04T20:55:13.557Z,99449.23
2019-04-04T20:57:40.944Z,99447.23
2019-04-04T21:00:08.680Z,99453.13
2019-04-04T21:02:35.651Z,99457.02
2019-04-04T21:05:02.699Z,99463.25
2019-04-04T21:07:29.623Z,99461.45
2019-04-04T21:09:57.154Z,99463.83
2019-04-04T21:12:24.450Z,99468.49
2019-04-04T21:14:51.561Z,99469.13
2019-04-04T21:20:06.740Z,99477.44
2019-04-04T21:22:33.687Z,99483.22
2019-04-04T21:25:00.894Z,99488.35
2019-04-04T21:27:27.930Z,99478.02
2019-04-04T21:29:55.277Z,99479.70
2019-04-04T21:32:22.435Z,99483.06
2019-04-04T21:34:49.117Z,99483.45
2019-04-04T21:37:15.849Z,99483.58
2019-04-04T21:39:42.573Z,99491.62
2019-04-04T21:42:09.541Z,99495.47
2019-04-04T21:44:36.182Z,99495.52
2019-04-04T21:47:02.910Z,99497.61
2019-04-04T21:49:30.173Z,99498.89
2019-04-04T21:52:09.628Z,99497.53
2019-04-04T21:54:36.351Z,99497.77
2019-04-04T21:57:03.174Z,99501.07
2019-04-04T21:59:29.910Z,99495.44
2019-04-04T22:01:57.180Z,99503.63
2019-04-04T22:04:23.809Z,99503.56
2019-04-04T22:06:50.528Z,99509.48
2019-04-04T22:11:56.223Z,99507.75
2019-04-04T22:14:22.943Z,99510.47
2019-04-04T22:16:49.551Z,99516.95
2019-04-04T22:19:16.228Z,99513.92
2019-04-04T22:21:42.939Z,99516.89
2019-04-04T22:24:09.983Z,99517.05
2019-04-04T22:26:36.853Z,99518.38
2019-04-04T22:29:03.582Z,99524.05
2019-04-04T22:31:30.506Z,99528.64
2019-04-04T22:33:57.671Z,99524.39
2019-04-04T22:36:24.291Z,99529.97
2019-04-04T22:38:50.914Z,99528.50
2019-04-04T22:41:17.677Z,99530.20
2019-04-04T22:43:44.393Z,99540.52
2019-04-04T22:46:11.558Z,99531.14
2019-04-04T22:48:38.263Z,99532.35
2019-04-04T22:51:05.268Z,99536.78
2019-04-04T22:53:32.044Z,99538.69
2019-04-04T22:55:59.240Z,99537.45
2019-04-04T22:58:28.529Z,99536.98
2019-04-04T23:00:54.531Z,99540.56
2019-04-04T23:06:00.028Z,99544.05
2019-04-04T23:08:27.061Z,99550.25
2019-04-04T23:10:53.683Z,99547.22
2019-04-04T23:13:20.944Z,99551.25
2019-04-04T23:15:48.099Z,99551.31
2019-04-04T23:18:15.166Z,99548.20
2019-04-04T23:20:41.931Z,99545.36
2019-04-04T23:23:08.943Z,99547.04
2019-04-04T23:25:35.719Z,99542.01
2019-04-04T23:28:02.493Z,99544.18
2019-04-04T23:30:29.110Z,99548.52
2019-04-04T23:32:55.746Z,99547.41
2019-04-04T23:35:22.535Z,99546.48
2019-04-04T23:37:49.258Z,99544.78
2019-04-04T23:40:16.422Z,99540.90
2019-04-04T23:42:43.089Z,99544.39
2019-04-04T23:45:09.804Z,99542.86
2019-04-04T23:47:42.615Z,99541.94
2019-04-04T23:50:46.781Z,99539.03
2019-04-04T23:53:13.409Z,99545.88
2019-04-04T23:55:40.362Z,99545.70
2019-04-04T23:58:07.139Z,99547.86
